createdAt,value
2023-03-02T00:01:57.327Z,54.98
2023-03-02T00:04:42.691Z,55.83
2023-03-02T00:07:14.628Z,56.48
2023-03-02T00:09:43.578Z,57.20
2023-03-02T00:12:11.923Z,57.89
2023-03-02T00:14:38.769Z,58.32
2023-03-02T00:17:08.308Z,58.95
2023-03-02T00:19:36.695Z,59.54
2023-03-02T00:22:04.688Z,60.12
2023-03-02T00:24:31.885Z,60.71
2023-03-02T00:26:58.936Z,61.11
2023-03-02T00:29:25.983Z,61.62
2023-03-02T00:31:53.080Z,63.90
2023-03-02T00:34:30.260Z,71.91
2023-03-02T00:36:57.328Z,75.03
2023-03-02T00:39:24.924Z,74.15
2023-03-02T00:41:52.042Z,71.75
2023-03-02T00:44:19.408Z,68.72
2023-03-02T00:46:46.515Z,66.21
2023-03-02T00:49:13.890Z,64.59
2023-03-02T00:51:41.165Z,63.10
2023-03-02T00:54:08.242Z,61.31
2023-03-02T00:56:35.328Z,59.88
2023-03-02T00:59:07.321Z,56.08
2023-03-02T01:01:34.446Z,52.31
2023-03-02T01:04:01.486Z,51.86
2023-03-02T01:06:28.795Z,52.33
2023-03-02T01:08:55.828Z,53.30
2023-03-02T01:11:23.018Z,54.04
2023-03-02T01:13:51.028Z,54.82
2023-03-02T01:16:18.787Z,55.43
2023-03-02T01:18:46.135Z,56.00
2023-03-02T01:21:15.858Z,56.65
2023-03-02T01:23:43.102Z,57.48
2023-03-02T01:26:10.528Z,58.20
2023-03-02T01:28:37.818Z,58.72
2023-03-02T01:31:05.624Z,59.19
2023-03-02T01:33:33.492Z,59.56
2023-03-02T01:36:00.992Z,60.11
2023-03-02T01:38:28.757Z,60.70
2023-03-02T01:40:55.736Z,61.39
2023-03-02T01:43:22.941Z,61.91
2023-03-02T01:46:05.127Z,64.06
2023-03-02T01:48:45.418Z,74.43
2023-03-02T01:51:16.306Z,77.21
2023-03-02T01:53:47.508Z,74.05
2023-03-02T01:56:21.652Z,70.79
2023-03-02T01:58:53.409Z,68.12
2023-03-02T02:01:22.023Z,65.78
2023-03-02T02:03:50.981Z,63.13
2023-03-02T02:06:43.262Z,61.13
2023-03-02T02:09:14.781Z,56.79
2023-03-02T02:11:43.976Z,52.88
2023-03-02T02:14:10.986Z,52.25
2023-03-02T02:16:39.530Z,52.60
2023-03-02T02:19:31.583Z,53.34
2023-03-02T02:21:58.838Z,53.93
2023-03-02T02:24:34.131Z,54.77
2023-03-02T02:27:01.969Z,55.43
2023-03-02T02:29:35.570Z,56.23
2023-03-02T02:32:11.698Z,57.07
2023-03-02T02:34:40.945Z,57.71
2023-03-02T02:37:15.013Z,58.20
2023-03-02T02:39:46.706Z,58.68
2023-03-02T02:42:36.610Z,59.23
2023-03-02T02:45:08.072Z,59.73
2023-03-02T02:47:35.436Z,60.32
2023-03-02T02:50:02.848Z,60.97
2023-03-02T02:52:30.289Z,61.43
2023-03-02T02:54:59.109Z,62.00
2023-03-02T02:57:29.970Z,65.20
2023-03-02T03:00:01.311Z,74.51
2023-03-02T03:02:33.270Z,75.59
2023-03-02T03:05:04.312Z,73.65
2023-03-02T03:07:32.055Z,71.20
2023-03-02T03:10:18.853Z,71.15
2023-03-02T03:12:47.740Z,68.79
2023-03-02T03:15:16.223Z,66.21
2023-03-02T03:17:53.844Z,63.78
2023-03-02T03:20:22.615Z,61.53
2023-03-02T03:22:49.879Z,57.23
2023-03-02T03:25:17.243Z,52.53
2023-03-02T03:27:44.490Z,51.93
2023-03-02T03:30:13.973Z,52.52
2023-03-02T03:32:41.838Z,53.38
2023-03-02T03:35:11.888Z,54.06
2023-03-02T03:37:41.073Z,54.31
2023-03-02T03:40:10.294Z,54.75
2023-03-02T03:42:40.451Z,55.48
2023-03-02T03:45:09.134Z,56.26
2023-03-02T03:47:36.799Z,56.79
2023-03-02T03:50:04.515Z,57.42
2023-03-02T03:52:32.075Z,58.02
2023-03-02T03:55:00.676Z,58.72
2023-03-02T03:57:29.278Z,59.31
2023-03-02T03:59:56.248Z,59.77
2023-03-02T04:02:23.589Z,60.31
2023-03-02T04:04:50.916Z,60.85
2023-03-02T04:07:18.368Z,61.40
2023-03-02T04:09:45.429Z,61.90
2023-03-02T04:12:12.745Z,65.00
2023-03-02T04:14:39.875Z,74.37
2023-03-02T04:17:07.491Z,75.35
2023-03-02T04:19:35.898Z,73.65
2023-03-02T04:22:04.758Z,71.24
2023-03-02T04:24:32.419Z,69.01
2023-03-02T04:26:59.879Z,66.40
2023-03-02T04:29:32.921Z,64.30
2023-03-02T04:32:06.644Z,62.68
2023-03-02T04:34:33.860Z,60.92
2023-03-02T04:37:01.467Z,57.38
2023-03-02T04:39:28.418Z,53.90
2023-03-02T04:41:55.738Z,54.04
2023-03-02T04:44:23.056Z,55.00
2023-03-02T04:46:50.219Z,55.96
2023-03-02T04:49:19.480Z,56.39
2023-03-02T04:51:48.830Z,56.82
2023-03-02T04:54:25.457Z,57.14
2023-03-02T04:56:53.721Z,57.29
2023-03-02T04:59:30.945Z,57.65
2023-03-02T05:02:05.494Z,58.10
2023-03-02T05:04:33.245Z,58.64
2023-03-02T05:07:00.731Z,59.18
2023-03-02T05:09:29.721Z,59.79
2023-03-02T05:11:59.369Z,60.36
2023-03-02T05:14:27.396Z,60.76
2023-03-02T05:16:54.648Z,61.21
2023-03-02T05:19:21.802Z,61.77
2023-03-02T05:21:49.169Z,64.71
2023-03-02T05:24:16.185Z,74.21
2023-03-02T05:26:43.133Z,75.75
2023-03-02T05:29:09.985Z,73.73
2023-03-02T05:31:43.359Z,70.59
2023-03-02T05:34:15.542Z,68.52
2023-03-02T05:36:43.822Z,66.62
2023-03-02T05:39:11.148Z,64.51
2023-03-02T05:41:38.730Z,62.73
2023-03-02T05:44:09.648Z,61.20
2023-03-02T05:46:37.204Z,59.45
2023-03-02T05:49:04.566Z,55.44
2023-03-02T05:51:31.530Z,52.63
2023-03-02T05:53:58.556Z,53.22
2023-03-02T05:56:25.732Z,54.32
2023-03-02T05:58:52.526Z,55.70
2023-03-02T06:01:19.884Z,56.57
2023-03-02T06:03:47.369Z,57.31
2023-03-02T06:06:14.540Z,57.89
2023-03-02T06:08:42.593Z,58.54
2023-03-02T06:11:10.213Z,59.16
2023-03-02T06:13:37.775Z,59.94
2023-03-02T06:16:05.457Z,60.52
2023-03-02T06:18:32.900Z,60.94
2023-03-02T06:21:00.541Z,61.34
2023-03-02T06:23:27.806Z,61.88
2023-03-02T06:25:55.158Z,64.48
2023-03-02T06:28:22.298Z,72.47
2023-03-02T06:30:50.056Z,75.31
2023-03-02T06:33:18.368Z,73.99
2023-03-02T06:35:46.506Z,71.22
2023-03-02T06:38:13.853Z,67.88
2023-03-02T06:40:41.161Z,65.34
2023-03-02T06:43:08.148Z,63.33
2023-03-02T06:45:35.642Z,61.66
2023-03-02T06:48:02.785Z,59.61
2023-03-02T06:50:29.726Z,55.85
2023-03-02T06:52:57.321Z,53.57
2023-03-02T06:55:24.841Z,54.15
2023-03-02T06:57:52.444Z,55.21
2023-03-02T07:00:26.423Z,56.24
2023-03-02T07:02:54.050Z,57.00
2023-03-02T07:05:22.930Z,57.63
2023-03-02T07:07:50.279Z,58.92
2023-03-02T07:10:17.566Z,59.48
2023-03-02T07:12:45.238Z,59.92
2023-03-02T07:15:14.572Z,60.18
2023-03-02T07:17:43.805Z,60.42
2023-03-02T07:20:13.011Z,61.07
2023-03-02T07:22:40.804Z,60.98
2023-03-02T07:25:20.896Z,61.11
2023-03-02T07:27:50.401Z,61.27
2023-03-02T07:30:31.105Z,61.97
2023-03-02T07:32:59.858Z,64.52
2023-03-02T07:35:35.319Z,69.65
2023-03-02T07:38:03.494Z,69.17
2023-03-02T07:40:37.421Z,66.09
2023-03-02T07:43:07.063Z,62.60
2023-03-02T07:45:34.534Z,57.81
2023-03-02T07:48:03.089Z,53.22
2023-03-02T07:50:32.192Z,52.68
2023-03-02T07:53:00.752Z,53.23
2023-03-02T07:55:28.685Z,53.24
2023-03-02T07:57:55.687Z,53.85
2023-03-02T08:00:23.007Z,54.55
2023-03-02T08:02:50.113Z,54.20
2023-03-02T08:05:17.434Z,54.72
2023-03-02T08:07:47.330Z,55.14
2023-03-02T08:10:14.393Z,55.80
2023-03-02T08:12:43.247Z,54.83
2023-03-02T08:15:11.417Z,54.75
2023-03-02T08:17:38.705Z,54.14
2023-03-02T08:20:07.004Z,54.11
2023-03-02T08:22:34.366Z,53.29
2023-03-02T08:25:01.588Z,52.80
2023-03-02T08:27:28.379Z,52.13
2023-03-02T08:29:55.811Z,53.19
2023-03-02T08:32:22.787Z,51.77
2023-03-02T08:34:52.211Z,51.95
2023-03-02T08:37:20.249Z,50.04
2023-03-02T08:39:47.486Z,49.38
2023-03-02T08:42:14.846Z,49.30
2023-03-02T08:44:41.814Z,48.80
2023-03-02T08:47:09.003Z,51.91
2023-03-02T08:49:38.217Z,50.55
2023-03-02T08:52:05.733Z,47.41
2023-03-02T08:54:34.945Z,49.78
2023-03-02T08:57:03.008Z,48.55
2023-03-02T08:59:30.285Z,48.31
2023-03-02T09:01:59.722Z,48.03
2023-03-02T09:04:26.762Z,48.36
2023-03-02T09:06:53.803Z,49.71
2023-03-02T09:09:20.840Z,45.74
2023-03-02T09:11:48.239Z,44.29
2023-03-02T09:14:15.644Z,45.41
2023-03-02T09:16:42.760Z,47.66
2023-03-02T09:19:12.532Z,47.70
2023-03-02T09:21:40.125Z,45.79
2023-03-02T09:24:07.329Z,43.64
2023-03-02T09:26:35.484Z,44.53
2023-03-02T09:29:02.469Z,42.51
2023-03-02T09:31:30.502Z,43.15
2023-03-02T09:33:57.791Z,43.45
2023-03-02T09:36:26.944Z,43.18
2023-03-02T09:38:54.200Z,42.08
2023-03-02T09:41:21.093Z,42.54
2023-03-02T09:43:50.983Z,43.11
2023-03-02T09:46:34.416Z,41.62
2023-03-02T09:49:39.322Z,42.35
2023-03-02T09:52:35.084Z,41.55
2023-03-02T09:55:24.242Z,39.79
2023-03-02T09:57:52.212Z,38.54
2023-03-02T10:00:28.537Z,37.86
2023-03-02T10:03:16.187Z,37.87
2023-03-02T10:05:48.785Z,37.47
2023-03-02T10:08:21.160Z,36.58
2023-03-02T10:10:59.731Z,35.88
2023-03-02T10:14:08.697Z,35.52
2023-03-02T10:16:52.844Z,34.46
2023-03-02T10:19:32.756Z,33.91
2023-03-02T10:22:08.920Z,33.92
2023-03-02T10:24:47.332Z,34.06
2023-03-02T10:27:27.120Z,33.00
2023-03-02T10:30:06.758Z,33.48
2023-03-02T10:32:42.140Z,34.31
2023-03-02T10:35:21.256Z,34.41
2023-03-02T10:37:49.428Z,34.36
2023-03-02T10:40:51.113Z,34.11
2023-03-02T10:43:31.152Z,34.35
2023-03-02T10:46:03.668Z,33.51
2023-03-02T10:48:32.783Z,32.50
2023-03-02T10:51:01.514Z,32.72
2023-03-02T10:53:31.132Z,32.08
2023-03-02T10:56:00.676Z,30.90
2023-03-02T10:58:33.009Z,31.07
2023-03-02T11:01:06.077Z,30.87
2023-03-02T11:03:34.622Z,31.18
2023-03-02T11:06:18.119Z,31.81
2023-03-02T11:08:45.031Z,32.25
2023-03-02T11:11:23.205Z,31.49
2023-03-02T11:13:51.221Z,31.09
2023-03-02T11:16:18.527Z,31.07
2023-03-02T11:19:17.720Z,31.48
2023-03-02T11:21:54.044Z,31.87
2023-03-02T11:24:37.322Z,31.37
2023-03-02T11:27:23.037Z,30.48
2023-03-02T11:30:17.320Z,30.73
2023-03-02T11:33:02.065Z,30.55
2023-03-02T11:35:37.400Z,30.37
2023-03-02T11:38:19.732Z,30.42
2023-03-02T11:40:55.662Z,30.68
2023-03-02T11:43:23.152Z,30.69
2023-03-02T11:46:10.863Z,30.65
2023-03-02T11:48:45.331Z,30.75
2023-03-02T11:51:18.284Z,30.28
2023-03-02T11:53:58.248Z,29.93
2023-03-02T11:56:27.176Z,29.77
2023-03-02T11:58:58.281Z,29.45
2023-03-02T12:01:29.405Z,29.69
2023-03-02T12:04:08.397Z,30.13
2023-03-02T12:06:39.082Z,30.14
2023-03-02T12:09:37.444Z,30.01
2023-03-02T12:12:32.109Z,30.45
2023-03-02T12:14:59.144Z,30.32
2023-03-02T12:17:25.983Z,29.93
2023-03-02T12:20:27.054Z,29.91
2023-03-02T12:22:55.243Z,29.36
2023-03-02T12:25:22.150Z,29.17
2023-03-02T12:27:52.052Z,29.48
2023-03-02T12:30:24.023Z,29.25
2023-03-02T12:33:18.818Z,29.24
2023-03-02T12:35:47.749Z,29.18
2023-03-02T12:38:35.558Z,29.24
2023-03-02T12:41:35.829Z,28.90
2023-03-02T12:44:34.948Z,29.25
2023-03-02T12:47:03.784Z,29.16
2023-03-02T12:50:20.958Z,29.24
2023-03-02T12:52:58.855Z,29.17
2023-03-02T12:55:26.205Z,28.96
2023-03-02T12:57:58.687Z,29.01
2023-03-02T13:00:30.448Z,27.95
2023-03-02T13:02:58.890Z,29.12
2023-03-02T13:05:32.073Z,29.60
2023-03-02T13:08:02.003Z,29.49
2023-03-02T13:10:37.502Z,29.10
2023-03-02T13:13:19.519Z,29.02
2023-03-02T13:15:58.204Z,29.29
2023-03-02T13:18:28.466Z,29.33
2023-03-02T13:20:56.231Z,29.68
2023-03-02T13:23:23.733Z,29.71
2023-03-02T13:25:57.516Z,29.52
2023-03-02T13:28:40.450Z,29.53
2023-03-02T13:31:20.741Z,29.60
2023-03-02T13:33:50.595Z,29.99
2023-03-02T13:36:31.283Z,29.76
2023-03-02T13:39:00.881Z,30.28
2023-03-02T13:41:36.932Z,30.65
2023-03-02T13:44:31.639Z,30.83
2023-03-02T13:46:59.832Z,30.89
2023-03-02T13:49:35.920Z,31.42
2023-03-02T13:52:22.687Z,31.74
2023-03-02T13:54:50.410Z,31.89
2023-03-02T13:57:25.478Z,32.20
2023-03-02T13:59:52.795Z,32.39
2023-03-02T14:02:29.021Z,32.54
2023-03-02T14:04:57.012Z,32.85
2023-03-02T14:07:24.278Z,32.89
2023-03-02T14:09:51.483Z,32.99
2023-03-02T14:12:25.644Z,33.32
2023-03-02T14:14:56.193Z,33.32
2023-03-02T14:17:25.562Z,33.44
2023-03-02T14:19:53.562Z,33.74
2023-03-02T14:22:22.137Z,33.85
2023-03-02T14:24:49.320Z,33.75
2023-03-02T14:27:18.297Z,33.98
2023-03-02T14:29:46.953Z,34.05
2023-03-02T14:32:15.706Z,33.89
2023-03-02T14:34:45.473Z,33.89
2023-03-02T14:37:22.889Z,34.32
2023-03-02T14:39:55.520Z,34.36
2023-03-02T14:42:24.607Z,34.47
2023-03-02T14:44:53.342Z,34.69
2023-03-02T14:47:22.557Z,34.74
2023-03-02T14:49:51.347Z,34.77
2023-03-02T14:52:28.273Z,34.94
2023-03-02T14:55:01.479Z,35.13
2023-03-02T14:57:34.667Z,35.24
2023-03-02T15:00:04.236Z,35.25
2023-03-02T15:02:33.992Z,35.60
2023-03-02T15:05:01.297Z,36.01
2023-03-02T15:07:29.240Z,35.79
2023-03-02T15:09:58.682Z,35.81
2023-03-02T15:12:28.241Z,35.89
2023-03-02T15:14:56.613Z,35.92
2023-03-02T15:17:25.399Z,35.97
2023-03-02T15:19:53.478Z,36.47
2023-03-02T15:22:22.063Z,36.52
2023-03-02T15:24:51.688Z,36.48
2023-03-02T15:27:20.982Z,36.59
2023-03-02T15:29:48.556Z,36.45
2023-03-02T15:32:16.687Z,36.61
2023-03-02T15:34:44.395Z,36.77
2023-03-02T15:37:12.845Z,36.82
2023-03-02T15:39:40.589Z,37.00
2023-03-02T15:42:07.738Z,37.33
2023-03-02T15:44:34.947Z,37.22
2023-03-02T15:47:02.082Z,37.34
2023-03-02T15:49:29.685Z,37.47
2023-03-02T15:51:58.729Z,37.57
2023-03-02T15:54:27.746Z,37.76
2023-03-02T15:56:54.942Z,37.83
2023-03-02T15:59:24.408Z,37.87
2023-03-02T16:01:51.585Z,38.29
2023-03-02T16:04:18.809Z,38.51
2023-03-02T16:06:58.367Z,38.82
2023-03-02T16:09:52.793Z,38.90
2023-03-02T16:12:23.821Z,38.90
2023-03-02T16:14:50.821Z,39.19
2023-03-02T16:17:21.145Z,38.71
2023-03-02T16:19:48.221Z,39.45
2023-03-02T16:22:15.661Z,39.94
2023-03-02T16:24:43.223Z,40.22
2023-03-02T16:27:10.309Z,40.53
2023-03-02T16:29:38.021Z,40.93
2023-03-02T16:32:06.693Z,41.31
2023-03-02T16:34:33.822Z,41.62
2023-03-02T16:37:00.872Z,41.87
2023-03-02T16:39:28.035Z,42.17
2023-03-02T16:41:54.982Z,42.49
2023-03-02T16:44:23.432Z,42.77
2023-03-02T16:46:50.397Z,43.06
2023-03-02T16:49:17.854Z,43.47
2023-03-02T16:51:44.905Z,43.76
2023-03-02T16:54:16.465Z,43.97
2023-03-02T16:56:45.544Z,44.35
2023-03-02T16:59:12.627Z,44.68
2023-03-02T17:01:39.685Z,45.04
2023-03-02T17:04:07.273Z,45.24
2023-03-02T17:06:34.380Z,45.47
2023-03-02T17:09:01.606Z,45.76
2023-03-02T17:11:28.781Z,45.94
2023-03-02T17:13:56.142Z,46.33
2023-03-02T17:16:23.582Z,46.65
2023-03-02T17:18:50.724Z,46.98
2023-03-02T17:21:18.946Z,47.19
2023-03-02T17:23:59.823Z,47.46
2023-03-02T17:26:26.937Z,47.58
2023-03-02T17:28:54.022Z,47.99
2023-03-02T17:31:30.096Z,48.24
2023-03-02T17:33:57.443Z,48.47
2023-03-02T17:36:24.357Z,48.65
2023-03-02T17:38:52.427Z,48.88
2023-03-02T17:41:19.294Z,49.06
2023-03-02T17:43:46.506Z,49.32
2023-03-02T17:46:15.611Z,49.69
2023-03-02T17:48:43.664Z,49.86
2023-03-02T17:51:12.048Z,50.12
2023-03-02T17:53:39.143Z,50.28
2023-03-02T17:56:06.874Z,50.51
2023-03-02T17:58:44.385Z,50.72
2023-03-02T18:01:13.648Z,50.89
2023-03-02T18:03:41.101Z,51.16
2023-03-02T18:06:08.183Z,51.48
2023-03-02T18:08:35.145Z,51.83
2023-03-02T18:11:02.621Z,51.94
2023-03-02T18:13:29.501Z,52.17
2023-03-02T18:15:56.469Z,52.38
2023-03-02T18:18:24.320Z,52.65
2023-03-02T18:20:51.305Z,51.63
2023-03-02T18:23:19.804Z,52.39
2023-03-02T18:25:46.824Z,52.93
2023-03-02T18:28:14.192Z,53.28
2023-03-02T18:30:41.790Z,53.40
2023-03-02T18:33:09.161Z,53.82
2023-03-02T18:35:45.153Z,54.08
2023-03-02T18:38:12.188Z,54.10
2023-03-02T18:40:39.861Z,54.33
2023-03-02T18:43:06.944Z,54.50
2023-03-02T18:45:34.740Z,54.54
2023-03-02T18:48:02.479Z,54.73
2023-03-02T18:50:30.923Z,54.96
2023-03-02T18:52:58.044Z,55.23
2023-03-02T18:55:25.731Z,55.41
2023-03-02T18:57:55.665Z,55.62
2023-03-02T19:00:27.966Z,55.76
2023-03-02T19:02:56.681Z,55.97
2023-03-02T19:05:27.345Z,56.10
2023-03-02T19:07:55.089Z,56.18
2023-03-02T19:10:22.504Z,56.22
2023-03-02T19:12:49.921Z,56.40
2023-03-02T19:15:17.306Z,56.51
2023-03-02T19:17:44.935Z,56.59
2023-03-02T19:20:15.669Z,56.76
2023-03-02T19:22:43.117Z,57.16
2023-03-02T19:25:11.296Z,57.32
2023-03-02T19:27:38.533Z,57.73
2023-03-02T19:30:07.312Z,57.96
2023-03-02T19:32:34.995Z,58.19
2023-03-02T19:35:02.996Z,58.46
2023-03-02T19:37:30.308Z,58.65
2023-03-02T19:39:57.368Z,58.77
2023-03-02T19:42:24.317Z,59.04
2023-03-02T19:44:51.386Z,59.43
2023-03-02T19:47:18.382Z,59.77
2023-03-02T19:49:45.475Z,60.11
2023-03-02T19:52:12.599Z,60.30
2023-03-02T19:54:39.620Z,60.47
2023-03-02T19:57:08.304Z,60.68
2023-03-02T19:59:37.097Z,60.90
2023-03-02T20:02:04.193Z,61.00
2023-03-02T20:04:31.076Z,61.01
2023-03-02T20:06:58.425Z,61.18
2023-03-02T20:09:25.675Z,61.23
2023-03-02T20:11:52.925Z,61.31
2023-03-02T20:14:32.889Z,61.36
2023-03-02T20:17:02.205Z,61.36
2023-03-02T20:19:29.348Z,61.37
2023-03-02T20:21:56.420Z,61.55
2023-03-02T20:24:23.621Z,61.79
2023-03-02T20:26:50.864Z,61.90
2023-03-02T20:29:18.995Z,62.11
2023-03-02T20:31:45.960Z,64.78
2023-03-02T20:34:16.197Z,72.02
2023-03-02T20:36:44.102Z,73.40
2023-03-02T20:39:16.354Z,70.88
2023-03-02T20:41:44.514Z,68.01
2023-03-02T20:44:14.568Z,65.30
2023-03-02T20:46:46.420Z,62.71
2023-03-02T20:49:16.110Z,60.37
2023-03-02T20:51:49.474Z,55.57
2023-03-02T20:54:17.568Z,51.94
2023-03-02T20:56:45.142Z,51.50
2023-03-02T20:59:14.206Z,51.77
2023-03-02T21:01:42.608Z,52.28
2023-03-02T21:04:10.636Z,52.70
2023-03-02T21:06:38.110Z,53.32
2023-03-02T21:09:08.258Z,53.90
2023-03-02T21:11:35.968Z,54.47
2023-03-02T21:14:03.463Z,55.11
2023-03-02T21:16:36.258Z,55.74
2023-03-02T21:19:10.017Z,56.27
2023-03-02T21:21:42.046Z,56.70
2023-03-02T21:24:17.078Z,57.25
2023-03-02T21:26:49.212Z,57.77
2023-03-02T21:29:18.050Z,58.12
2023-03-02T21:31:45.461Z,58.80
2023-03-02T21:34:13.642Z,59.25
2023-03-02T21:36:40.984Z,59.69
2023-03-02T21:39:09.620Z,60.12
2023-03-02T21:41:36.995Z,60.43
2023-03-02T21:44:06.057Z,60.72
2023-03-02T21:46:36.110Z,61.07
2023-03-02T21:49:08.155Z,61.44
2023-03-02T21:51:44.048Z,61.66
2023-03-02T21:54:10.959Z,61.86
2023-03-02T21:56:38.079Z,64.27
2023-03-02T21:59:05.636Z,71.91
2023-03-02T22:01:35.889Z,73.73
2023-03-02T22:04:03.005Z,71.83
2023-03-02T22:06:32.814Z,69.40
2023-03-02T22:08:59.856Z,67.38
2023-03-02T22:11:33.621Z,65.40
2023-03-02T22:14:17.750Z,63.78
2023-03-02T22:16:48.203Z,63.00
2023-03-02T22:19:25.874Z,61.38
2023-03-02T22:21:55.377Z,57.12
2023-03-02T22:24:26.816Z,52.94
2023-03-02T22:27:02.352Z,52.63
2023-03-02T22:29:42.662Z,53.20
2023-03-02T22:32:37.064Z,53.86
2023-03-02T22:35:26.060Z,54.51
2023-03-02T22:38:02.425Z,55.27
2023-03-02T22:40:32.281Z,55.74
2023-03-02T22:43:27.398Z,56.91
2023-03-02T22:45:59.788Z,57.21
2023-03-02T22:48:29.560Z,57.66
2023-03-02T22:50:56.678Z,58.13
2023-03-02T22:53:32.763Z,58.74
2023-03-02T22:56:02.205Z,59.24
2023-03-02T22:58:44.752Z,59.62
2023-03-02T23:01:23.630Z,60.04
2023-03-02T23:03:53.952Z,60.55
2023-03-02T23:06:27.916Z,61.16
2023-03-02T23:08:58.759Z,61.31
2023-03-02T23:11:27.064Z,61.89
2023-03-02T23:13:55.564Z,64.76
2023-03-02T23:16:27.902Z,72.86
2023-03-02T23:18:59.717Z,74.37
2023-03-02T23:21:47.902Z,72.53
2023-03-02T23:24:15.470Z,70.07
2023-03-02T23:26:43.424Z,67.47
2023-03-02T23:29:10.287Z,65.29
2023-03-02T23:31:38.475Z,63.20
2023-03-02T23:34:06.272Z,60.96
2023-03-02T23:36:33.240Z,57.21
2023-03-02T23:39:00.507Z,53.38
2023-03-02T23:41:27.655Z,53.13
2023-03-02T23:43:55.075Z,54.00
2023-03-02T23:46:22.072Z,54.92
2023-03-02T23:48:49.470Z,55.82
2023-03-02T23:51:16.588Z,56.61
2023-03-02T23:53:44.982Z,57.04
2023-03-02T23:56:11.955Z,57.59
2023-03-02T23:58:39.384Z,58.06
